Flight Track Log - Related Links

Times and Time Zones

All times are in EDT time to prevent confusion due to time zone crossing. See the NJE9SD flight status page for this flight to view local times or setup timezone preferences in your user account.

Time Position Orientation Groundspeed Altitude Reporting Facility
EDT Latitude Longitude Course Direction KTS MPH feet Rate Location/Type
Sat 02:07:38 PM 26.1864 -81.8803 38° Northeast 281 323 8,400  Level Miami Center
Sat 02:08:38 PM 26.2744 -81.8653 North 292 336 11,000 2,479 Climbing Miami Center
Sat 02:09:39 PM 26.3647 -81.8506 North 311 358 13,400 2,450 Climbing Miami Center
Sat 02:10:38 PM 26.4572 -81.8361 North 328 377 15,900 2,622 Climbing Miami Center
Sat 02:11:00 PM 26.9310 -81.4209 41° Northeast  Level Estimated
Sat 02:11:38 PM 26.5600 -81.8217 North 347 399 18,600  Level Miami Center
Sat 02:12:00 PM 27.0607 -81.3614 38° Northeast  Level Estimated
Sat 02:12:38 PM 26.6689 -81.8056 North 371 427 21,600  Level Miami Center
Sat 02:13:38 PM 26.7867 -81.7847 North 395 455 23,000 2,050 Climbing Miami Center
Sat 02:14:38 PM 26.9106 -81.7622 North 426 490 25,700 2,650 Climbing Miami Center
Sat 02:15:38 PM 27.0422 -81.7583 North 447 514 28,300 1,900 Climbing Miami Center
Sat 02:16:38 PM 27.1703 -81.7917 347° North 465 535 29,500 1,800 Climbing Miami Center
Sat 02:17:38 PM 27.2881 -81.8319 343° North 477 549 31,900 1,750 Climbing Miami Center
Sat 02:18:38 PM 27.4183 -81.8656 347° North 477 549 33,000 550 Climbing Miami Center
Sat 02:19:38 PM 27.5653 -81.8439 North 478 550 33,000 350 Level Miami Center
Sat 02:20:38 PM 27.6944 -81.7839 22° Northeast 486 559 33,700 1,041 Climbing Miami Center
Sat 02:21:39 PM 27.7967 -81.7272 26° Northeast 496 571 35,100 1,350 Climbing Miami Center
Sat 02:22:38 PM 27.9594 -81.6661 18° North 506 582 36,400 1,412 Climbing Miami Center
Sat 02:23:38 PM 28.1039 -81.6511 North 512 589 37,900 1,300 Climbing Miami Center
Sat 02:24:38 PM 28.2458 -81.6453 North 512 589 39,000 532 Climbing Miami Center
Sat 02:25:42 PM 28.3878 -81.6325 North 529 609 39,000  Level Jacksonville Center
Sat 02:26:42 PM 28.5486 -81.6281 North 545 627 39,000  Level Jacksonville Center
Sat 02:27:42 PM 28.6925 -81.6192 North 531 611 39,000  Level Jacksonville Center
Sat 02:28:42 PM 28.8383 -81.6081 North 523 602 39,000  Level Jacksonville Center
Sat 02:29:42 PM 28.9844 -81.5917 North 518 596 39,000  Level Jacksonville Center
Sat 02:30:42 PM 29.1281 -81.5661 North 518 596 39,000  Level Jacksonville Center
Sat 02:31:42 PM 29.2697 -81.5406 North 518 596 39,000  Level Jacksonville Center
Sat 02:32:42 PM 29.4136 -81.5147 North 518 596 39,000  Level Jacksonville Center
Sat 02:33:42 PM 29.5572 -81.4911 North 523 602 39,000  Level Jacksonville Center
Sat 02:34:42 PM 29.6989 -81.4653 North 523 602 39,000  Level Jacksonville Center
Sat 02:35:42 PM 29.8469 -81.4389 North 523 602 39,000  Level Jacksonville Center
Sat 02:36:42 PM 29.9886 -81.4128 North 518 596 39,000  Level Jacksonville Center
Sat 02:37:42 PM 30.1344 -81.3867 North 524 603 39,000  Level Jacksonville Center
Sat 02:38:42 PM 30.2781 -81.3603 North 524 603 39,000  Level Jacksonville Center
Sat 02:39:42 PM 30.4242 -81.3364 North 524 603 39,000  Level Jacksonville Center
Sat 02:40:42 PM 30.5678 -81.3122 North 519 597 39,000  Level Jacksonville Center
Sat 02:41:42 PM 30.7136 -81.2858 North 519 597 39,000  Level Jacksonville Center
Sat 02:42:42 PM 30.8553 -81.2592 North 519 597 39,000  Level Jacksonville Center
Sat 02:43:42 PM 30.9969 -81.2350 North 519 597 39,000  Level Jacksonville Center
Sat 02:44:42 PM 31.1406 -81.2081 North 519 597 39,000  Level Jacksonville Center
Sat 02:45:42 PM 31.2803 -81.1789 10° North 514 592 39,000  Level Jacksonville Center
Sat 02:46:42 PM 31.4169 -81.1106 23° Northeast 526 605 39,000  Level Jacksonville Center
Sat 02:47:42 PM 31.5472 -81.0178 31° Northeast 537 618 39,000  Level Jacksonville Center
Sat 02:48:42 PM 31.6753 -80.9275 31° Northeast 537 618 39,000  Level Jacksonville Center
Sat 02:49:42 PM 31.7931 -80.8442 31° Northeast 537 618 39,000  Level Jacksonville Center
Sat 02:50:42 PM 31.9333 -80.7408 32° Northeast 537 618 39,000  Level Jacksonville Center
Sat 02:51:42 PM 32.0631 -80.6469 32° Northeast 539 620 39,000  Level Jacksonville Center
Sat 02:52:42 PM 32.1786 -80.5633 31° Northeast 534 615 39,000  Level Jacksonville Center
Sat 02:53:42 PM 32.3206 -80.4614 31° Northeast 541 623 39,000  Level Jacksonville Center
Sat 02:54:42 PM 32.4503 -80.3667 32° Northeast 541 623 39,000  Level Jacksonville Center
Sat 02:55:42 PM 32.5756 -80.2672 34° Northeast 541 623 39,000  Level Jacksonville Center
Sat 02:56:42 PM 32.6944 -80.1575 38° Northeast 541 623 39,000  Level Jacksonville Center
Sat 02:57:42 PM 32.8150 -80.0428 39° Northeast 546 628 39,000  Level Jacksonville Center
Sat 02:58:42 PM 32.9375 -79.9275 38° Northeast 552 635 39,000  Level Jacksonville Center
Sat 02:59:42 PM 33.0600 -79.8144 38° Northeast 557 641 39,000  Level Jacksonville Center
Sat 03:00:42 PM 33.1825 -79.7008 38° Northeast 550 633 39,000  Level Jacksonville Center
Sat 03:01:42 PM 33.3028 -79.5847 39° Northeast 550 633 39,000  Level Jacksonville Center
Sat 03:02:42 PM 33.4228 -79.4733 38° Northeast 550 633 39,000  Level Jacksonville Center
Sat 03:03:42 PM 33.5428 -79.3567 39° Northeast 550 633 39,000  Level Jacksonville Center
Sat 03:04:42 PM 33.6647 -79.2419 38° Northeast 550 633 39,000  Level Jacksonville Center
Sat 03:05:42 PM 33.7783 -79.1322 39° Northeast 545 627 39,000  Level Jacksonville Center
Sat 03:08:06 PM 34.0689 -78.8533 38° Northeast 548 631 39,000  Level Washington Center
Sat 03:09:06 PM 34.1889 -78.7353 39° Northeast 553 636 39,000  Level Washington Center
Sat 03:10:07 PM 34.3086 -78.6217 38° Northeast 553 636 39,000  Level Washington Center
Sat 03:11:07 PM 34.4328 -78.5003 39° Northeast 558 642 39,000  Level Washington Center
Sat 03:12:06 PM 34.5375 -78.3956 39° Northeast 558 642 39,000  Level Washington Center
Sat 03:13:06 PM 34.6611 -78.2761 38° Northeast 552 635 39,000  Level Washington Center
Sat 03:14:07 PM 34.7889 -78.1639 36° Northeast 558 642 39,000  Level Washington Center
Sat 03:15:05 PM 34.9164 -78.0592 34° Northeast 558 642 39,000  Level Washington Center
Sat 03:16:06 PM 35.0436 -77.9564 33° Northeast 553 636 39,000  Level Washington Center
Sat 03:17:07 PM 35.1769 -77.8511 33° Northeast 553 636 39,000  Level Washington Center
Sat 03:18:04 PM 35.3061 -77.7503 32° Northeast 553 636 39,000  Level Washington Center
Sat 03:19:05 PM 35.4375 -77.6467 33° Northeast 553 636 39,000  Level Washington Center
Sat 03:20:05 PM 35.5686 -77.5403 33° Northeast 558 642 39,000  Level Washington Center
Sat 03:21:06 PM 35.6975 -77.4386 33° Northeast 558 642 39,000  Level Washington Center
Sat 03:22:06 PM 35.8283 -77.3314 34° Northeast 558 642 39,000  Level Washington Center
Sat 03:23:08 PM 35.9592 -77.2267 33° Northeast 558 642 39,000  Level Washington Center
Sat 03:24:05 PM 36.0858 -77.1214 34° Northeast 558 642 39,000  Level Washington Center
Sat 03:25:06 PM 36.2164 -77.0156 33° Northeast 553 636 39,000  Level Washington Center
Sat 03:26:07 PM 36.3469 -76.9097 33° Northeast 559 643 39,000  Level Washington Center
Sat 03:27:05 PM 36.4756 -76.8008 34° Northeast 559 643 39,000  Level Washington Center
Sat 03:28:05 PM 36.6078 -76.6967 32° Northeast 554 638 39,000  Level Washington Center
Sat 03:29:06 PM 36.7383 -76.5819 35° Northeast 559 643 39,000  Level Washington Center
Sat 03:30:06 PM 36.8706 -76.4747 33° Northeast 559 643 39,000  Level Washington Center
Sat 03:31:06 PM 36.9986 -76.3642 35° Northeast 559 643 39,000  Level Washington Center
Sat 03:32:07 PM 37.1306 -76.2536 34° Northeast 559 643 39,000  Level Washington Center
Sat 03:33:07 PM 37.2814 -76.1347 32° Northeast 564 649 39,000  Level Washington Center
Sat 03:34:05 PM 37.4133 -76.0233 34° Northeast 564 649 39,000  Level Washington Center
Sat 03:35:06 PM 37.5408 -75.9139 34° Northeast 564 649 39,000  Level Washington Center
Sat 03:36:05 PM 37.6744 -75.7992 34° Northeast 564 649 39,000  Level Washington Center
Sat 03:37:06 PM 37.8061 -75.6892 33° Northeast 564 649 39,000  Level Washington Center
Sat 03:38:06 PM 37.9394 -75.5733 34° Northeast 570 656 39,000  Level Washington Center
Sat 03:39:06 PM 38.0689 -75.4625 34° Northeast 570 656 39,000  Level Washington Center
Sat 03:40:07 PM 38.2106 -75.3725 27° Northeast 565 650 39,000  Level Washington Center
Sat 03:41:05 PM 38.3478 -75.2794 28° Northeast 559 643 39,000 -202 Level Washington Center
Sat 03:42:06 PM 38.4894 -75.1911 26° Northeast 559 643 38,600 -793 Descending Washington Center
Sat 03:43:06 PM 38.6328 -75.0972 27° Northeast 559 643 37,400 -1,190 Descending Washington Center
Sat 03:44:07 PM 38.7783 -75.0086 25° Northeast 566 651 36,200 -1,550 Descending Washington Center
Sat 03:45:06 PM 38.9300 -74.9086 27° Northeast 578 665 34,300 -2,067 Descending Washington Center
Sat 03:46:06 PM 39.0775 -74.8081 28° Northeast 596 686 32,100 -2,500 Descending Washington Center
Sat 03:47:06 PM 39.2161 -74.6808 35° Northeast 601 692 29,300 -2,431 Descending Washington Center
Sat 03:49:21 PM 39.4911 -74.3889 39° Northeast 581 669 24,200 -1,631 Descending New York Center
Sat 03:50:21 PM 39.6267 -74.2478 39° Northeast 571 657 24,000 -550 Descending New York Center
Sat 03:51:21 PM 39.7472 -74.1189 39° Northeast 564 649 23,100 -1,208 Descending New York Center
Sat 03:53:00 PM 39.9383 -73.9150 39° Northeast 554 638 20,800 -1,388 Descending Boston Center
Sat 03:54:01 PM 40.0522 -73.7922 40° Northeast 529 609 19,400 -1,440 Descending Boston Center
Sat 03:55:05 PM 40.1617 -73.6750 39° Northeast 509 586 17,800 -1,210 Descending Boston Center
Sat 03:56:05 PM 40.2578 -73.5747 39° Northeast 472 543 16,900 -443 Descending Boston Center
Sat 03:57:07 PM 40.3864 -73.4594 34° Northeast 457 526 16,900  Level Boston Center
Sat 03:58:07 PM 40.5106 -73.4078 18° North 462 532 16,900 -541 Level Boston Center
Sat 03:59:09 PM 40.6294 -73.3644 15° North 442 509 15,800 -984 Descending Boston Center
Sat 04:00:09 PM 40.7333 -73.3253 16° North 390 449 14,900 -446 Descending Boston Center
Sat 04:01:10 PM 40.8164 -73.2550 33° Northeast 372 428 14,900 -1,362 Level Boston Center
Sat 04:03:14 PM 40.9333 -73.0000 59° Northeast 339 390 10,700 -1,826 Descending New York TRACON
Sat 04:04:14 PM 41.0000 -72.9500 30° Northeast 306 352 9,300 -1,300 Descending New York TRACON
Sat 04:06:14 PM 41.0833 -73.1000 306° West 253 291 6,800 -1,033 Descending New York TRACON
Sat 04:07:14 PM 41.1000 -73.1833 285° West 254 292 6,200 -600 Descending New York TRACON
Sat 04:08:14 PM 41.1167 -73.2667 285° West 252 290 5,600 -600 Descending New York TRACON
Sat 04:09:14 PM 41.1500 -73.3500 298° West 252 290 5,000 -733 Descending New York TRACON
Sat 04:11:14 PM 41.1833 -73.5333 284° West 251 289 3,400 -800 Descending New York TRACON
Sat 04:12:14 PM 41.2167 -73.6167 298° West 253 291 2,600 -700 Descending New York TRACON
Sat 04:13:14 PM 41.2167 -73.7000 270° West 218 251 2,000 -200 Descending New York TRACON
Sat 04:15:14 PM 41.1667 -73.7833 231° Southwest 170 196 2,000 -67 Level New York TRACON
Sat 04:16:14 PM 41.1333 -73.7500 143° Southeast 162 186 1,800 -450 Descending New York TRACON
Sat 04:17:14 PM 41.1000 -73.7333 159° South 121 139 1,100 -700 Descending New York TRACON

Login

Don't have an account? Register now (free) for customized features, flight alerts, and more!